Time;durP1;ratioP1;P1;durP2;ratioP2;P2;SDS_P1;SDS_P2;PMS_P1;PMS_P2;Temp;Humidity;BMP_temperature;BMP_pressure;BME280_temperature;BME280_humidity;BME280_pressure;Samples;Min_cycle;Max_cycle;Signal;HPM_P1;HPM_P2
2023/04/29 00:01:47;;;;;;;44.47;28.63;;;15.50;94.90;;;;;;4995267;28;20379;-69
2023/04/29 00:04:13;;;;;;;40.20;28.90;;;15.40;95.20;;;;;;4995077;28;20033;-70
2023/04/29 00:06:39;;;;;;;41.85;28.25;;;15.40;95.10;;;;;;4994596;28;20026;-75
2023/04/29 00:09:04;;;;;;;44.90;29.08;;;15.30;95.20;;;;;;4994348;28;20483;-69
2023/04/29 00:11:30;;;;;;;36.85;27.92;;;15.30;95.30;;;;;;4994910;28;20097;-68
2023/04/29 00:13:56;;;;;;;45.28;29.10;;;15.30;95.30;;;;;;4991142;28;20600;-68
2023/04/29 00:16:21;;;;;;;40.50;27.52;;;15.30;95.30;;;;;;4990819;28;20023;-72
2023/04/29 00:18:47;;;;;;;40.90;28.10;;;15.30;95.20;;;;;;4990829;28;20494;-74
2023/04/29 00:21:13;;;;;;;40.80;27.70;;;15.30;95.20;;;;;;4994098;28;20030;-68
2023/04/29 00:23:38;;;;;;;38.67;27.95;;;15.30;95.40;;;;;;4994352;28;20061;-77
2023/04/29 00:26:04;;;;;;;42.40;28.98;;;15.20;95.30;;;;;;4993177;28;20038;-77
2023/04/29 00:28:29;;;;;;;39.47;27.95;;;15.20;95.40;;;;;;4990588;28;20113;-78
2023/04/29 00:30:55;;;;;;;44.25;28.95;;;15.20;95.40;;;;;;4993213;28;20029;-77
2023/04/29 00:33:20;;;;;;;42.83;28.42;;;15.20;95.30;;;;;;4992849;28;20022;-78
2023/04/29 00:35:46;;;;;;;44.13;30.52;;;15.20;95.30;;;;;;4993369;28;20039;-77
2023/04/29 00:38:12;;;;;;;40.92;28.75;;;15.10;95.40;;;;;;4994384;28;20043;-77
2023/04/29 00:40:38;;;;;;;38.22;28.65;;;15.20;95.40;;;;;;4992891;28;20030;-76
2023/04/29 00:43:03;;;;;;;41.47;29.70;;;15.10;95.30;;;;;;4993953;28;20050;-77
2023/04/29 00:45:29;;;;;;;39.70;29.55;;;15.10;95.40;;;;;;4993419;28;20069;-77
2023/04/29 00:47:55;;;;;;;39.00;28.77;;;15.10;95.40;;;;;;4988680;28;20034;-76
2023/04/29 00:50:20;;;;;;;36.60;27.38;;;15.00;95.50;;;;;;4989992;28;20053;-71
2023/04/29 00:52:47;;;;;;;33.35;27.02;;;15.00;95.40;;;;;;4993840;28;20459;-77
2023/04/29 00:55:13;;;;;;;35.03;25.67;;;15.00;95.40;;;;;;4997022;28;20557;-73
2023/04/29 00:57:38;;;;;;;28.95;24.25;;;15.00;95.40;;;;;;4996111;28;20032;-72
2023/04/29 01:00:05;;;;;;;29.60;23.35;;;15.00;95.30;;;;;;4994082;28;20022;-76
2023/04/29 01:02:30;;;;;;;27.73;21.17;;;15.00;95.40;;;;;;4993850;28;20077;-74
2023/04/29 01:04:56;;;;;;;28.75;21.20;;;14.90;95.30;;;;;;4993765;28;20038;-73
2023/04/29 01:07:54;;;;;;;28.48;21.08;;;15.00;95.30;;;;;;4993636;28;20028;-72
2023/04/29 01:10:28;;;;;;;25.92;19.80;;;14.90;95.50;;;;;;4949695;28;20056;-78
2023/04/29 01:12:54;;;;;;;25.92;20.25;;;14.90;95.50;;;;;;4986838;28;20438;-72
2023/04/29 01:15:29;;;;;;;24.48;19.58;;;14.90;95.30;;;;;;4991704;28;20026;-73
2023/04/29 01:18:02;;;;;;;21.42;19.10;;;14.90;95.30;;;;;;4991210;28;20040;-72
2023/04/29 01:20:29;;;;;;;21.60;18.25;;;14.90;95.30;;;;;;4993797;28;20046;-72
2023/04/29 01:22:55;;;;;;;23.52;18.33;;;14.90;95.10;;;;;;4991878;28;20026;-73
2023/04/29 01:25:20;;;;;;;26.77;19.95;;;14.80;95.10;;;;;;4991337;28;20030;-72
2023/04/29 01:28:01;;;;;;;24.88;18.55;;;14.80;95.30;;;;;;4993302;28;20506;-71
2023/04/29 01:30:54;;;;;;;19.85;16.92;;;14.70;95.10;;;;;;4993678;28;20035;-74
2023/04/29 01:33:31;;;;;;;19.85;16.85;;;14.80;95.00;;;;;;4993650;28;20030;-69
2023/04/29 01:36:23;;;;;;;19.90;14.63;;;14.70;94.90;;;;;;4993886;28;20034;-72
2023/04/29 01:39:11;;;;;;;18.17;15.93;;;14.70;94.90;;;;;;4992934;28;20037;-72
2023/04/29 01:41:39;;;;;;;17.25;14.98;;;14.70;94.80;;;;;;4993395;28;20022;-73
2023/04/29 01:44:07;;;;;;;18.98;15.88;;;14.70;94.90;;;;;;4993540;28;20038;-75
2023/04/29 01:46:34;;;;;;;20.35;16.27;;;14.70;94.80;;;;;;4993713;28;20383;-71
2023/04/29 01:48:59;;;;;;;22.90;16.35;;;14.70;94.90;;;;;;4992715;28;20038;-73
2023/04/29 01:51:25;;;;;;;21.83;17.42;;;14.60;94.80;;;;;;4993584;28;20022;-76
2023/04/29 01:53:51;;;;;;;19.98;16.30;;;14.60;94.90;;;;;;5008356;28;20088;-73
2023/04/29 01:56:17;;;;;;;24.23;19.17;;;14.60;95.00;;;;;;4993486;28;20023;-69
2023/04/29 01:58:42;;;;;;;25.05;17.42;;;14.60;95.00;;;;;;4993218;28;20444;-71
2023/04/29 02:01:09;;;;;;;19.73;17.10;;;14.60;95.00;;;;;;4993503;28;20081;-75
2023/04/29 02:03:35;;;;;;;18.75;16.75;;;14.60;94.90;;;;;;4993266;28;20360;-74
2023/04/29 02:06:01;;;;;;;18.27;15.82;;;14.60;95.00;;;;;;4992988;28;20050;-70
2023/04/29 02:08:27;;;;;;;22.00;16.63;;;14.60;94.90;;;;;;4993532;28;20482;-72
2023/04/29 02:10:56;;;;;;;22.55;15.05;;;14.50;94.90;;;;;;4992939;28;20062;-75
2023/04/29 02:13:22;;;;;;;17.95;15.25;;;14.50;95.00;;;;;;4993471;28;20118;-71
2023/04/29 02:15:48;;;;;;;17.95;16.02;;;14.50;94.90;;;;;;4993145;28;20472;-69
2023/04/29 02:18:14;;;;;;;20.80;15.35;;;14.50;94.90;;;;;;4993255;28;20026;-72
2023/04/29 02:20:40;;;;;;;20.42;17.27;;;14.50;95.00;;;;;;4993300;28;20030;-70
2023/04/29 02:23:06;;;;;;;26.38;18.38;;;14.50;95.10;;;;;;4993477;28;20105;-69
2023/04/29 02:25:31;;;;;;;26.30;19.42;;;14.50;95.10;;;;;;4992978;28;20066;-73
2023/04/29 02:27:57;;;;;;;24.45;18.45;;;14.40;95.10;;;;;;4993401;28;20022;-70
2023/04/29 02:30:23;;;;;;;23.35;17.60;;;14.40;95.10;;;;;;4992923;28;20475;-76
2023/04/29 02:32:48;;;;;;;24.17;17.95;;;14.40;95.10;;;;;;4993017;28;20464;-73
2023/04/29 02:35:14;;;;;;;25.20;18.70;;;14.40;95.20;;;;;;4993112;28;20038;-74
2023/04/29 02:37:39;;;;;;;22.80;18.10;;;14.40;95.10;;;;;;4992998;28;20034;-72
2023/04/29 02:40:06;;;;;;;29.23;18.70;;;14.40;95.20;;;;;;4992879;28;20117;-76
2023/04/29 02:42:31;;;;;;;26.20;16.95;;;14.40;95.20;;;;;;4993246;28;20050;-73
2023/04/29 02:44:57;;;;;;;23.02;17.42;;;14.40;95.30;;;;;;4992905;28;20068;-72
2023/04/29 02:47:22;;;;;;;24.67;18.15;;;14.30;95.20;;;;;;4993140;28;20085;-73
2023/04/29 02:49:48;;;;;;;27.98;16.77;;;14.30;95.30;;;;;;4992663;28;20085;-71
2023/04/29 02:52:15;;;;;;;20.55;16.30;;;14.30;95.40;;;;;;4996253;28;20022;-69
2023/04/29 02:54:42;;;;;;;24.30;16.15;;;14.30;95.50;;;;;;4996507;28;20105;-69
2023/04/29 02:57:08;;;;;;;23.10;17.38;;;14.30;95.40;;;;;;4996313;28;20528;-72
2023/04/29 02:59:33;;;;;;;26.15;18.20;;;14.30;95.50;;;;;;4996362;28;20062;-69
2023/04/29 03:02:00;;;;;;;27.20;18.48;;;14.30;95.60;;;;;;4996122;28;20031;-71
2023/04/29 03:04:27;;;;;;;23.92;17.33;;;14.30;95.60;;;;;;4995972;28;20027;-73
2023/04/29 03:06:56;;;;;;;25.65;19.00;;;14.30;95.70;;;;;;4995899;28;20076;-72
2023/04/29 03:09:22;;;;;;;23.30;18.60;;;14.20;95.70;;;;;;4995805;28;20078;-71
2023/04/29 03:11:48;;;;;;;21.80;17.88;;;14.20;95.80;;;;;;4996450;28;20054;-71
2023/04/29 03:14:14;;;;;;;27.88;17.63;;;14.20;95.80;;;;;;4996074;28;20034;-72
2023/04/29 03:16:40;;;;;;;23.40;17.38;;;14.20;95.70;;;;;;4995806;28;20019;-74
2023/04/29 03:19:05;;;;;;;23.40;16.63;;;14.20;95.50;;;;;;4995967;28;20026;-72
2023/04/29 03:21:31;;;;;;;23.58;16.15;;;14.20;95.60;;;;;;4995686;28;20027;-72
2023/04/29 03:23:57;;;;;;;19.85;15.45;;;14.10;95.50;;;;;;4995973;28;20073;-71
2023/04/29 03:26:23;;;;;;;20.48;15.63;;;14.10;95.60;;;;;;4995957;28;20019;-75
2023/04/29 03:28:49;;;;;;;20.45;15.70;;;14.10;95.60;;;;;;4995888;28;20034;-77
2023/04/29 03:31:15;;;;;;;20.27;15.13;;;14.10;95.50;;;;;;4995721;28;20468;-71
2023/04/29 03:33:41;;;;;;;22.58;14.65;;;14.10;95.50;;;;;;4995716;28;20498;-74
2023/04/29 03:36:07;;;;;;;20.67;16.17;;;14.10;95.50;;;;;;4995294;28;20026;-74
2023/04/29 03:38:33;;;;;;;24.80;15.45;;;14.10;95.40;;;;;;4995747;28;20030;-73
2023/04/29 03:40:59;;;;;;;22.48;16.58;;;14.00;95.40;;;;;;4995563;28;20109;-73
2023/04/29 03:43:25;;;;;;;23.58;15.48;;;14.10;95.50;;;;;;4995554;28;20110;-71
2023/04/29 03:45:51;;;;;;;21.67;16.35;;;14.00;95.50;;;;;;4995675;28;20053;-70
2023/04/29 03:48:17;;;;;;;21.85;15.70;;;14.00;95.50;;;;;;4995271;28;20026;-70
2023/04/29 03:50:43;;;;;;;20.38;15.90;;;14.00;95.60;;;;;;4995123;28;20388;-69
2023/04/29 03:53:08;;;;;;;22.50;15.13;;;14.00;95.60;;;;;;4995389;28;20468;-70
2023/04/29 03:55:34;;;;;;;22.48;15.65;;;14.00;95.50;;;;;;4995519;28;20475;-72
2023/04/29 03:58:00;;;;;;;16.85;15.07;;;13.90;95.60;;;;;;4995274;28;20026;-75
2023/04/29 04:00:25;;;;;;;29.67;16.75;;;13.90;95.70;;;;;;4995245;28;20049;-74
2023/04/29 04:02:52;;;;;;;21.08;15.45;;;13.90;95.70;;;;;;4995087;28;20041;-68
2023/04/29 04:05:23;;;;;;;21.67;16.35;;;13.90;95.60;;;;;;4994793;28;20038;-74
2023/04/29 04:07:50;;;;;;;22.55;15.45;;;13.90;95.60;;;;;;4995125;28;20488;-71
2023/04/29 04:10:15;;;;;;;21.38;15.30;;;13.90;95.60;;;;;;4995072;28;20113;-77
2023/04/29 04:12:41;;;;;;;17.38;14.77;;;13.90;95.50;;;;;;4995191;28;20249;-73
2023/04/29 04:15:07;;;;;;;20.13;13.77;;;13.90;95.50;;;;;;4994879;28;20045;-73
2023/04/29 04:17:33;;;;;;;19.80;14.00;;;13.90;95.60;;;;;;4994975;28;20022;-71
2023/04/29 04:19:58;;;;;;;22.90;15.10;;;13.90;95.60;;;;;;4994679;28;20102;-73
2023/04/29 04:22:24;;;;;;;21.08;14.15;;;13.90;95.70;;;;;;4994932;28;20026;-76
2023/04/29 04:24:49;;;;;;;17.08;13.60;;;13.80;95.70;;;;;;4994853;28;20023;-74
2023/04/29 04:27:15;;;;;;;19.85;14.43;;;13.80;95.60;;;;;;4994656;28;20097;-73
2023/04/29 04:29:40;;;;;;;19.40;13.20;;;13.80;95.70;;;;;;4994371;28;20541;-74
2023/04/29 04:32:06;;;;;;;17.65;14.27;;;13.80;95.70;;;;;;4994374;28;20095;-75
2023/04/29 04:34:32;;;;;;;19.70;12.02;;;13.80;95.50;;;;;;4994130;28;20396;-74
2023/04/29 04:36:57;;;;;;;18.33;12.68;;;13.80;95.40;;;;;;4994365;28;20038;-71
2023/04/29 04:39:23;;;;;;;16.50;11.70;;;13.70;95.40;;;;;;4994406;28;20357;-69
2023/04/29 04:41:48;;;;;;;15.52;11.95;;;13.70;95.40;;;;;;4994490;28;20030;-72
2023/04/29 04:44:15;;;;;;;15.90;12.18;;;13.70;95.30;;;;;;4994148;28;20026;-75
2023/04/29 04:46:41;;;;;;;17.80;12.98;;;13.70;95.30;;;;;;4994518;28;20127;-74
2023/04/29 04:49:06;;;;;;;16.58;11.45;;;13.70;95.30;;;;;;4994021;28;20113;-73
2023/04/29 04:51:32;;;;;;;14.52;11.90;;;13.60;95.50;;;;;;4994410;28;20053;-71
2023/04/29 04:53:58;;;;;;;15.55;11.60;;;13.70;95.10;;;;;;4994109;28;20054;-70
2023/04/29 04:56:23;;;;;;;13.57;11.20;;;13.60;95.00;;;;;;4994385;28;20081;-71
2023/04/29 04:58:49;;;;;;;13.38;10.82;;;13.60;94.70;;;;;;4994006;28;20417;-72
2023/04/29 05:01:14;;;;;;;15.43;10.57;;;13.70;94.70;;;;;;4994344;28;20535;-69
2023/04/29 05:03:40;;;;;;;16.13;11.63;;;13.60;94.60;;;;;;4993858;28;20030;-70
2023/04/29 05:06:05;;;;;;;12.55;11.07;;;13.60;94.70;;;;;;4993966;28;20102;-72
2023/04/29 05:08:31;;;;;;;15.15;11.43;;;13.60;94.70;;;;;;4993995;28;20471;-70
2023/04/29 05:10:57;;;;;;;17.48;12.10;;;13.60;94.80;;;;;;4994121;28;20026;-72
2023/04/29 05:13:24;;;;;;;16.67;12.20;;;13.60;94.80;;;;;;4993425;28;20030;-69
2023/04/29 05:15:50;;;;;;;13.27;11.48;;;13.60;94.80;;;;;;4994125;28;20026;-69
2023/04/29 05:18:16;;;;;;;18.45;13.32;;;13.60;94.80;;;;;;4993452;28;20092;-71
2023/04/29 05:20:41;;;;;;;17.10;13.25;;;13.60;95.00;;;;;;4993762;28;20526;-70
2023/04/29 05:23:07;;;;;;;17.92;12.40;;;13.50;95.00;;;;;;4993951;28;20073;-73
2023/04/29 05:25:33;;;;;;;17.77;13.18;;;13.50;95.20;;;;;;4994026;28;20057;-70
2023/04/29 05:27:59;;;;;;;16.55;12.77;;;13.60;95.20;;;;;;4993873;28;20391;-74
2023/04/29 05:30:24;;;;;;;15.95;12.23;;;13.50;95.20;;;;;;4993637;28;20074;-75
2023/04/29 05:32:50;;;;;;;18.80;13.90;;;13.50;95.30;;;;;;4993324;28;20018;-71
2023/04/29 05:35:16;;;;;;;14.98;13.38;;;13.50;95.30;;;;;;4993911;28;20031;-73
2023/04/29 05:37:43;;;;;;;20.60;13.45;;;13.50;95.60;;;;;;4993613;28;20102;-72
2023/04/29 05:40:09;;;;;;;21.00;13.57;;;13.50;95.40;;;;;;4994024;28;20027;-72
2023/04/29 05:42:35;;;;;;;19.13;14.55;;;13.50;95.40;;;;;;4993707;28;20025;-69
2023/04/29 05:45:00;;;;;;;18.02;15.02;;;13.50;95.50;;;;;;4993466;28;20450;-75
2023/04/29 05:47:26;;;;;;;18.83;15.05;;;13.60;95.30;;;;;;4993816;28;20530;-72
2023/04/29 05:49:51;;;;;;;20.55;15.77;;;13.50;95.30;;;;;;4993287;28;20077;-71
2023/04/29 05:52:17;;;;;;;20.42;14.77;;;13.50;95.40;;;;;;4993622;28;20034;-71
2023/04/29 05:54:42;;;;;;;17.70;14.98;;;13.50;95.40;;;;;;4993829;28;20538;-68
2023/04/29 05:57:08;;;;;;;20.25;15.65;;;13.50;95.40;;;;;;4993507;28;20098;-70
2023/04/29 05:59:34;;;;;;;19.95;16.13;;;13.50;95.50;;;;;;4993458;28;20390;-70
2023/04/29 06:02:00;;;;;;;22.45;16.75;;;13.40;95.70;;;;;;4993253;28;20470;-70
2023/04/29 06:04:26;;;;;;;17.52;15.30;;;13.50;95.60;;;;;;4993302;28;20034;-72
2023/04/29 06:06:52;;;;;;;26.67;18.17;;;13.50;95.70;;;;;;4993162;28;20026;-66
2023/04/29 06:09:19;;;;;;;28.85;18.17;;;13.00;96.10;;;;;;4993236;28;20047;-73
2023/04/29 06:11:45;;;;;;;22.40;18.35;;;12.50;97.10;;;;;;4993472;28;20022;-71
2023/04/29 06:14:11;;;;;;;21.50;18.92;;;12.40;98.00;;;;;;4993115;28;20030;-67
2023/04/29 06:16:37;;;;;;;25.85;20.08;;;12.20;98.40;;;;;;4993154;28;20402;-73
2023/04/29 06:19:02;;;;;;;28.35;19.70;;;12.10;98.70;;;;;;4993235;28;20335;-70
2023/04/29 06:21:28;;;;;;;24.52;19.80;;;12.00;98.80;;;;;;4993306;28;20025;-74
2023/04/29 06:23:54;;;;;;;29.80;19.83;;;11.90;99.10;;;;;;4993276;28;20369;-74
2023/04/29 06:26:20;;;;;;;25.17;18.88;;;11.90;99.10;;;;;;4997075;28;20023;-71
2023/04/29 06:28:49;;;;;;;26.17;21.42;;;11.70;99.60;;;;;;4996983;28;20117;-70
2023/04/29 06:31:15;;;;;;;25.17;20.58;;;11.70;99.80;;;;;;4996500;28;20054;-70
2023/04/29 06:33:40;;;;;;;26.25;19.95;;;11.80;99.90;;;;;;4997117;28;20054;-67
2023/04/29 06:36:06;;;;;;;25.63;20.35;;;11.70;99.90;;;;;;4996924;28;20057;-72
2023/04/29 06:38:32;;;;;;;27.20;20.83;;;11.70;99.90;;;;;;4997232;28;20554;-78
2023/04/29 06:40:59;;;;;;;25.55;20.15;;;11.60;99.90;;;;;;4997641;28;20106;-71
2023/04/29 06:43:28;;;;;;;20.67;18.33;;;11.60;99.90;;;;;;4996747;28;20022;-70
2023/04/29 06:45:53;;;;;;;23.23;18.95;;;12.10;99.90;;;;;;4991443;28;20034;-66
2023/04/29 06:48:19;;;;;;;26.05;18.13;;;12.40;99.40;;;;;;4985795;28;20034;-72
2023/04/29 06:50:54;;;;;;;23.95;18.38;;;12.70;98.90;;;;;;4991612;28;20101;-71
2023/04/29 06:53:20;;;;;;;24.73;18.95;;;12.90;98.70;;;;;;4995962;28;20097;-71
2023/04/29 06:55:46;;;;;;;19.65;16.70;;;13.10;98.30;;;;;;4993726;28;20121;-73
2023/04/29 06:58:15;;;;;;;23.30;16.80;;;13.20;98.10;;;;;;4996112;28;20105;-70
2023/04/29 07:00:49;;;;;;;23.48;17.42;;;13.30;98.00;;;;;;4994118;28;20048;-73
2023/04/29 07:03:16;;;;;;;22.05;17.05;;;13.40;97.80;;;;;;4996261;28;20026;-73
2023/04/29 07:05:44;;;;;;;24.35;17.10;;;13.50;97.70;;;;;;4992215;28;20451;-73
2023/04/29 07:08:11;;;;;;;18.52;15.93;;;13.60;97.40;;;;;;4994988;28;20077;-76
2023/04/29 07:10:37;;;;;;;21.98;16.83;;;13.60;97.20;;;;;;4994471;28;20034;-72
2023/04/29 07:13:03;;;;;;;23.33;15.23;;;13.60;97.20;;;;;;4994910;28;20034;-71
2023/04/29 07:15:30;;;;;;;16.73;15.00;;;13.60;97.00;;;;;;4994275;28;20019;-69
2023/04/29 07:17:55;;;;;;;18.98;14.10;;;13.70;97.00;;;;;;4994768;28;20026;-73
2023/04/29 07:20:21;;;;;;;17.48;14.52;;;13.70;97.00;;;;;;4994211;28;20084;-70
2023/04/29 07:22:47;;;;;;;20.55;14.95;;;13.70;97.00;;;;;;4995580;28;20097;-74
2023/04/29 07:25:13;;;;;;;22.00;15.07;;;13.70;97.00;;;;;;4994587;28;20495;-69
2023/04/29 07:27:39;;;;;;;19.98;14.40;;;13.80;96.90;;;;;;4989229;28;20026;-66
2023/04/29 07:30:05;;;;;;;21.08;14.80;;;13.80;96.90;;;;;;4995355;28;20084;-70
2023/04/29 07:32:31;;;;;;;16.60;14.15;;;13.80;96.80;;;;;;4982159;28;20487;-68
2023/04/29 07:34:58;;;;;;;20.02;14.05;;;13.90;96.80;;;;;;4988455;28;20023;-70
2023/04/29 07:37:24;;;;;;;17.50;15.05;;;14.00;96.90;;;;;;4992980;28;20030;-71
2023/04/29 07:39:50;;;;;;;17.40;13.85;;;14.00;96.60;;;;;;4995509;28;20032;-73
2023/04/29 07:42:15;;;;;;;21.05;14.38;;;14.00;96.70;;;;;;4994670;28;20077;-73
2023/04/29 07:44:41;;;;;;;22.58;15.23;;;14.10;96.70;;;;;;4990714;28;20038;-65
2023/04/29 07:47:06;;;;;;;23.70;15.20;;;14.10;96.60;;;;;;4992509;28;20025;-71
2023/04/29 07:49:32;;;;;;;18.63;14.90;;;14.10;96.60;;;;;;4989880;28;20038;-69
2023/04/29 07:51:58;;;;;;;19.27;15.43;;;14.10;96.30;;;;;;4977710;28;20026;-71
2023/04/29 07:54:24;;;;;;;19.45;15.43;;;14.20;96.30;;;;;;4983931;28;20374;-74
2023/04/29 07:56:49;;;;;;;17.95;15.15;;;14.20;96.20;;;;;;4988825;28;20027;-77
2023/04/29 07:59:15;;;;;;;17.80;14.70;;;14.20;96.30;;;;;;4990551;28;20038;-71
2023/04/29 08:01:41;;;;;;;19.67;15.75;;;14.20;96.10;;;;;;4991552;28;20027;-71
2023/04/29 08:04:07;;;;;;;21.52;14.90;;;14.30;96.00;;;;;;4990528;28;20022;-73
2023/04/29 08:06:33;;;;;;;16.95;13.38;;;14.30;96.00;;;;;;4993194;28;20042;-70
2023/04/29 08:08:59;;;;;;;22.92;14.20;;;14.30;95.90;;;;;;4994486;28;20058;-71
2023/04/29 08:11:25;;;;;;;15.90;13.48;;;14.30;95.80;;;;;;4991954;28;20073;-73
2023/04/29 08:13:51;;;;;;;16.42;14.77;;;14.30;95.70;;;;;;4991994;28;20022;-67
2023/04/29 08:16:17;;;;;;;18.05;14.35;;;14.30;95.80;;;;;;4992480;28;20102;-73
2023/04/29 08:18:43;;;;;;;17.50;14.27;;;14.40;95.90;;;;;;4990781;28;20030;-71
2023/04/29 08:21:10;;;;;;;21.30;15.10;;;14.40;95.80;;;;;;4993017;28;20125;-72
2023/04/29 08:23:37;;;;;;;16.70;14.80;;;14.50;95.80;;;;;;4992895;28;20037;-70
2023/04/29 08:26:03;;;;;;;17.63;13.82;;;14.50;95.80;;;;;;4992213;28;20034;-75
2023/04/29 08:28:28;;;;;;;15.48;13.68;;;14.60;95.70;;;;;;4992364;28;20037;-71
2023/04/29 08:30:55;;;;;;;18.63;14.30;;;14.60;95.50;;;;;;4992468;28;20551;-71
2023/04/29 08:33:21;;;;;;;15.82;14.00;;;14.70;95.40;;;;;;4991826;28;20145;-68
2023/04/29 08:35:47;;;;;;;19.17;14.63;;;14.70;95.30;;;;;;4990771;28;20101;-72
2023/04/29 08:38:12;;;;;;;17.65;14.18;;;14.60;95.10;;;;;;4996591;28;20034;-71
2023/04/29 08:40:44;;;;;;;16.42;13.60;;;14.60;95.20;;;;;;4991447;28;20030;-68
2023/04/29 08:43:12;;;;;;;18.33;14.15;;;14.60;94.90;;;;;;4993621;28;20070;-72
2023/04/29 08:45:39;;;;;;;18.60;13.95;;;14.70;94.70;;;;;;4992379;28;20038;-68
2023/04/29 08:48:06;;;;;;;15.05;12.82;;;14.70;94.80;;;;;;4992143;28;20030;-72
2023/04/29 08:50:38;;;;;;;16.60;14.20;;;14.80;94.70;;;;;;4993494;28;20042;-69
2023/04/29 08:53:06;;;;;;;16.48;12.90;;;14.80;94.40;;;;;;4988914;28;20460;-71
2023/04/29 08:55:34;;;;;;;15.95;12.85;;;14.90;94.70;;;;;;4990524;28;20367;-67
2023/04/29 08:58:01;;;;;;;14.55;12.50;;;14.90;94.40;;;;;;4993307;28;20026;-69
2023/04/29 09:00:27;;;;;;;15.85;13.00;;;14.90;94.00;;;;;;4990864;28;20026;-71
2023/04/29 09:02:56;;;;;;;16.27;12.50;;;15.00;93.90;;;;;;4991104;28;20092;-67
2023/04/29 09:05:23;;;;;;;14.38;12.73;;;15.00;94.00;;;;;;4989704;28;20054;-71
2023/04/29 09:07:50;;;;;;;14.98;11.95;;;15.10;94.10;;;;;;4990397;28;20058;-70
2023/04/29 09:10:17;;;;;;;17.88;12.77;;;15.10;94.00;;;;;;4988757;28;20126;-67
2023/04/29 09:12:42;;;;;;;15.25;12.10;;;15.10;93.70;;;;;;4993320;28;20022;-69
2023/04/29 09:15:08;;;;;;;13.95;12.32;;;15.10;93.40;;;;;;4991367;28;20033;-70
2023/04/29 09:17:45;;;;;;;13.52;12.07;;;15.20;93.50;;;;;;4991912;28;20029;-71
2023/04/29 09:20:20;;;;;;;16.75;12.15;;;15.20;93.40;;;;;;4980253;28;20032;-71
2023/04/29 09:22:50;;;;;;;16.45;11.75;;;15.20;93.40;;;;;;4992358;28;20034;-71
2023/04/29 09:25:16;;;;;;;15.77;12.15;;;15.20;93.10;;;;;;4991195;28;20037;-68
2023/04/29 09:27:42;;;;;;;15.45;12.90;;;15.20;93.10;;;;;;4991217;28;20073;-68
2023/04/29 09:30:08;;;;;;;13.23;11.88;;;15.20;93.20;;;;;;4989958;28;20035;-68
2023/04/29 09:32:34;;;;;;;13.38;11.52;;;15.30;93.10;;;;;;4991312;28;20032;-73
2023/04/29 09:35:21;;;;;;;16.02;12.38;;;15.30;93.10;;;;;;4989783;28;20109;-69
2023/04/29 09:37:47;;;;;;;13.23;11.80;;;15.30;93.10;;;;;;4992515;28;20038;-67
2023/04/29 09:40:33;;;;;;;14.18;11.90;;;15.40;93.10;;;;;;4991398;28;20388;-68
2023/04/29 09:42:59;;;;;;;14.40;12.35;;;15.40;93.20;;;;;;4992557;28;20018;-69
2023/04/29 09:45:35;;;;;;;18.30;13.13;;;15.40;93.20;;;;;;4996174;28;20089;-67
2023/04/29 09:48:05;;;;;;;14.77;12.05;;;15.40;93.50;;;;;;4974431;28;20031;-67
2023/04/29 09:50:32;;;;;;;17.90;13.18;;;15.50;93.50;;;;;;4988957;28;20026;-68
2023/04/29 09:52:58;;;;;;;13.75;12.27;;;15.50;93.50;;;;;;4990554;28;20057;-67
2023/04/29 09:55:25;;;;;;;14.82;11.73;;;15.50;93.40;;;;;;4989890;28;20041;-70
2023/04/29 09:57:52;;;;;;;16.42;11.43;;;15.50;93.10;;;;;;4984093;28;20427;-72
2023/04/29 10:00:18;;;;;;;11.50;10.40;;;15.60;92.90;;;;;;4992562;28;20030;-73
2023/04/29 10:02:47;;;;;;;13.00;11.13;;;15.70;92.60;;;;;;4989257;28;20077;-76
2023/04/29 10:05:14;;;;;;;14.13;12.63;;;15.70;92.60;;;;;;4994032;28;20080;-71
2023/04/29 10:07:40;;;;;;;12.40;11.18;;;15.70;92.60;;;;;;4995324;28;20030;-70
2023/04/29 10:10:08;;;;;;;15.02;11.63;;;15.70;92.70;;;;;;4988529;28;20066;-67
2023/04/29 10:12:38;;;;;;;15.65;11.82;;;15.70;93.10;;;;;;4994209;28;20011;-71
2023/04/29 10:15:19;;;;;;;14.35;11.48;;;15.70;92.80;;;;;;4997088;28;20743;-71
2023/04/29 10:18:09;;;;;;;12.57;11.38;;;15.70;92.60;;;;;;4992041;28;20023;-71
2023/04/29 10:20:37;;;;;;;13.45;11.27;;;15.70;92.60;;;;;;4989680;28;20022;-72
2023/04/29 10:23:03;;;;;;;13.68;11.88;;;15.70;92.40;;;;;;4996229;28;20029;-68
2023/04/29 10:25:29;;;;;;;18.40;12.45;;;15.80;92.50;;;;;;4992606;28;20468;-70
2023/04/29 10:27:55;;;;;;;14.82;12.13;;;15.80;92.70;;;;;;4990422;28;20049;-68
2023/04/29 10:30:22;;;;;;;13.80;11.77;;;15.80;92.20;;;;;;4988967;28;20492;-67
2023/04/29 10:32:50;;;;;;;13.75;12.27;;;15.90;92.30;;;;;;4991646;28;20026;-74
2023/04/29 10:35:18;;;;;;;13.65;11.88;;;15.90;92.50;;;;;;4998664;28;20026;-71
2023/04/29 10:37:46;;;;;;;15.35;13.02;;;15.90;92.40;;;;;;4994522;28;20115;-70
2023/04/29 10:40:20;;;;;;;15.07;12.55;;;16.00;92.40;;;;;;4996406;28;20026;-74
2023/04/29 10:42:52;;;;;;;14.98;11.38;;;16.00;92.40;;;;;;4994766;28;20432;-72
2023/04/29 10:45:25;;;;;;;14.93;12.30;;;16.00;92.50;;;;;;4992576;28;20096;-73
2023/04/29 10:48:09;;;;;;;14.50;13.00;;;16.10;92.70;;;;;;4993589;28;20022;-72
2023/04/29 10:50:47;;;;;;;15.38;12.77;;;16.10;92.00;;;;;;4995570;28;20034;-71
2023/04/29 10:53:13;;;;;;;14.50;11.55;;;16.10;92.70;;;;;;4993235;28;20806;-70
2023/04/29 10:55:40;;;;;;;18.40;14.23;;;16.20;93.40;;;;;;5003875;28;20525;-68
2023/04/29 10:58:38;;;;;;;14.30;12.57;;;16.20;93.60;;;;;;4996592;28;20394;-67
2023/04/29 11:01:04;;;;;;;14.80;12.57;;;16.20;93.20;;;;;;4986535;28;20057;-68
2023/04/29 11:03:58;;;;;;;15.13;11.50;;;16.20;92.80;;;;;;4988455;28;20018;-67
2023/04/29 11:06:36;;;;;;;15.48;12.88;;;16.20;93.30;;;;;;4990226;28;20027;-77
2023/04/29 11:09:19;;;;;;;18.95;12.38;;;16.30;92.10;;;;;;4995091;28;20061;-79
2023/04/29 11:12:02;;;;;;;15.82;12.55;;;16.30;92.50;;;;;;4982187;28;20022;-71
2023/04/29 11:14:41;;;;;;;14.52;11.85;;;16.40;91.70;;;;;;4987997;28;20018;-72
2023/04/29 11:17:09;;;;;;;14.95;12.05;;;16.40;92.10;;;;;;4991005;28;20035;-71
2023/04/29 11:19:40;;;;;;;13.77;12.38;;;16.40;91.60;;;;;;5001486;28;20076;-74
2023/04/29 11:22:17;;;;;;;14.90;12.10;;;16.40;91.60;;;;;;4998351;28;20030;-73
2023/04/29 11:24:55;;;;;;;13.95;11.55;;;16.50;93.20;;;;;;4997603;28;20110;-73
2023/04/29 11:27:24;;;;;;;13.38;11.80;;;16.50;92.30;;;;;;4988136;28;20049;-73
2023/04/29 11:29:59;;;;;;;14.07;11.40;;;16.50;92.10;;;;;;4992423;28;20034;-70
2023/04/29 11:32:39;;;;;;;12.45;10.63;;;16.60;91.80;;;;;;4993692;28;20030;-71
2023/04/29 11:35:08;;;;;;;12.65;11.25;;;16.60;91.70;;;;;;4989826;28;20036;-71
2023/04/29 11:37:34;;;;;;;11.82;10.50;;;16.60;91.30;;;;;;4993264;28;20038;-73
2023/04/29 11:40:00;;;;;;;11.02;9.90;;;16.70;90.50;;;;;;4987090;28;20097;-69
2023/04/29 11:42:27;;;;;;;11.85;10.25;;;16.60;90.20;;;;;;4987885;28;20119;-69
2023/04/29 11:44:55;;;;;;;14.07;9.40;;;16.60;91.10;;;;;;4992807;28;20014;-69
2023/04/29 11:47:26;;;;;;;12.95;9.55;;;16.70;91.00;;;;;;4991166;28;20030;-76
2023/04/29 11:49:52;;;;;;;12.10;10.70;;;16.80;91.00;;;;;;4985245;28;20360;-73
2023/04/29 11:52:17;;;;;;;12.52;11.10;;;16.80;90.80;;;;;;4992482;28;20073;-71
2023/04/29 11:54:43;;;;;;;11.15;9.50;;;16.80;90.90;;;;;;4999513;28;20038;-72
2023/04/29 11:57:09;;;;;;;8.45;7.57;;;16.80;91.30;;;;;;4997929;28;20452;-68
2023/04/29 11:59:35;;;;;;;12.35;9.88;;;16.80;91.30;;;;;;4994660;28;20109;-75
2023/04/29 12:02:01;;;;;;;10.02;9.05;;;16.80;91.00;;;;;;4994248;28;20109;-72
2023/04/29 12:04:26;;;;;;;12.15;8.77;;;16.90;91.00;;;;;;4993930;28;20025;-74
2023/04/29 12:06:52;;;;;;;10.65;9.18;;;16.90;91.00;;;;;;4997805;28;20045;-72
2023/04/29 12:09:18;;;;;;;10.02;8.63;;;16.90;91.10;;;;;;4994538;28;20387;-69
2023/04/29 12:11:45;;;;;;;11.48;10.23;;;16.90;90.70;;;;;;4998241;28;20486;-71
2023/04/29 12:14:13;;;;;;;9.68;8.60;;;17.00;90.20;;;;;;4993942;28;20066;-72
2023/04/29 12:16:39;;;;;;;8.85;7.95;;;17.00;90.30;;;;;;4996214;28;20018;-70
2023/04/29 12:19:05;;;;;;;9.20;8.30;;;17.00;89.30;;;;;;4993269;28;20077;-69
2023/04/29 12:21:32;;;;;;;8.25;7.20;;;17.10;89.30;;;;;;4990668;28;20109;-70
2023/04/29 12:24:01;;;;;;;8.95;8.02;;;17.00;90.90;;;;;;4993255;28;20042;-76
2023/04/29 12:26:29;;;;;;;11.10;8.60;;;17.00;90.40;;;;;;4990957;28;20040;-75
2023/04/29 12:28:57;;;;;;;10.13;8.45;;;17.10;90.10;;;;;;4995065;28;20073;-68
2023/04/29 12:31:23;;;;;;;12.82;8.07;;;17.10;91.00;;;;;;4993020;28;20026;-74